createdAt,value
2023-05-21T00:01:44.024Z,8.20
2023-05-21T00:04:17.988Z,8.50
2023-05-21T00:06:52.542Z,8.13
2023-05-21T00:09:26.134Z,8.43
2023-05-21T00:12:00.189Z,8.60
2023-05-21T00:14:34.024Z,8.33
2023-05-21T00:17:08.886Z,8.63
2023-05-21T00:19:42.344Z,8.45
2023-05-21T00:22:16.290Z,8.40
2023-05-21T00:24:50.121Z,8.87
2023-05-21T00:27:23.092Z,8.53
2023-05-21T00:29:57.106Z,8.80
2023-05-21T00:32:30.684Z,8.80
2023-05-21T00:35:04.592Z,8.83
2023-05-21T00:37:38.503Z,8.60
2023-05-21T00:40:14.055Z,9.03
2023-05-21T00:42:48.444Z,8.30
2023-05-21T00:45:24.360Z,8.83
2023-05-21T00:47:58.566Z,8.10
2023-05-21T00:50:32.762Z,8.70
2023-05-21T00:53:09.713Z,8.53
2023-05-21T00:55:44.660Z,8.37
2023-05-21T00:58:18.661Z,9.07
2023-05-21T01:00:56.049Z,8.60
2023-05-21T01:03:30.818Z,8.77
2023-05-21T01:06:04.695Z,8.93
2023-05-21T01:08:41.064Z,7.90
2023-05-21T01:11:15.696Z,7.53
2023-05-21T01:13:51.615Z,8.27
2023-05-21T01:16:25.544Z,8.53
2023-05-21T01:18:59.906Z,8.27
2023-05-21T01:21:36.221Z,7.93
2023-05-21T01:24:10.697Z,7.97
2023-05-21T01:26:46.735Z,8.00
2023-05-21T01:29:20.627Z,8.47
2023-05-21T01:32:03.244Z,8.60
2023-05-21T01:34:46.526Z,8.10
2023-05-21T01:37:27.080Z,8.20
2023-05-21T01:40:10.442Z,7.50
2023-05-21T01:42:47.083Z,9.07
2023-05-21T01:45:23.905Z,8.20
2023-05-21T01:47:58.848Z,7.63
2023-05-21T01:50:34.005Z,8.77
2023-05-21T01:53:07.642Z,8.20
2023-05-21T01:55:42.366Z,7.97
2023-05-21T01:58:17.239Z,8.80
2023-05-21T02:00:52.081Z,8.60
2023-05-21T02:03:31.407Z,7.93
2023-05-21T02:06:06.599Z,8.33
2023-05-21T02:08:40.518Z,8.63
2023-05-21T02:11:14.823Z,7.53
2023-05-21T02:13:49.580Z,8.07
2023-05-21T02:16:23.849Z,7.60
2023-05-21T02:18:58.079Z,8.27
2023-05-21T02:21:32.432Z,8.67
2023-05-21T02:24:06.651Z,8.63
2023-05-21T02:26:40.316Z,8.67
2023-05-21T02:29:14.366Z,8.40
2023-05-21T02:31:48.335Z,7.87
2023-05-21T02:34:22.429Z,7.80
2023-05-21T02:36:56.357Z,8.43
2023-05-21T02:39:31.185Z,8.00
2023-05-21T02:42:05.489Z,8.00
2023-05-21T02:44:39.206Z,8.47
2023-05-21T02:47:12.995Z,8.23
2023-05-21T02:49:47.315Z,7.63
2023-05-21T02:52:22.270Z,8.87
2023-05-21T02:54:56.454Z,8.00
2023-05-21T02:57:29.406Z,7.93
2023-05-21T03:00:05.205Z,8.27
2023-05-21T03:02:39.780Z,9.20
2023-05-21T03:05:13.525Z,7.73
2023-05-21T03:07:47.134Z,8.40
2023-05-21T03:10:21.870Z,7.90
2023-05-21T03:12:55.597Z,8.53
2023-05-21T03:15:33.539Z,8.40
2023-05-21T03:18:07.099Z,8.17
2023-05-21T03:20:43.953Z,9.00
2023-05-21T03:23:17.397Z,8.07
2023-05-21T03:25:52.474Z,8.30
2023-05-21T03:28:26.706Z,8.93
2023-05-21T03:30:59.703Z,7.80
2023-05-21T03:33:50.170Z,8.10
2023-05-21T03:39:04.574Z,8.20
2023-05-21T03:41:40.147Z,8.20
2023-05-21T03:44:16.917Z,7.60
2023-05-21T03:46:57.882Z,8.97
2023-05-21T03:49:37.630Z,7.77
2023-05-21T03:52:12.406Z,8.83
2023-05-21T03:54:46.538Z,7.47
2023-05-21T03:57:20.208Z,8.65
2023-05-21T03:59:54.704Z,8.77
2023-05-21T04:02:28.842Z,8.23
2023-05-21T04:05:02.650Z,8.43
2023-05-21T04:07:38.505Z,7.70
2023-05-21T04:10:14.719Z,8.53
2023-05-21T04:12:49.316Z,7.90
2023-05-21T04:15:24.854Z,8.10
2023-05-21T04:17:59.033Z,7.80
2023-05-21T04:20:32.434Z,7.00
2023-05-21T04:23:06.099Z,7.63
2023-05-21T04:25:39.961Z,7.73
2023-05-21T04:28:14.310Z,7.47
2023-05-21T04:30:47.739Z,8.13
2023-05-21T04:33:22.900Z,8.07
2023-05-21T04:35:56.895Z,7.43
2023-05-21T04:38:31.515Z,7.47
2023-05-21T04:41:05.617Z,7.43
2023-05-21T04:43:44.252Z,7.77
2023-05-21T04:46:19.325Z,6.57
2023-05-21T04:48:53.774Z,7.50
2023-05-21T04:51:27.913Z,7.23
2023-05-21T04:54:01.606Z,6.83
2023-05-21T04:56:36.146Z,7.27
2023-05-21T04:59:10.249Z,7.13
2023-05-21T05:01:44.519Z,7.13
2023-05-21T05:04:18.522Z,6.30
2023-05-21T05:06:53.296Z,6.63
2023-05-21T05:09:27.423Z,7.07
2023-05-21T05:12:01.138Z,6.33
2023-05-21T05:14:34.946Z,6.27
2023-05-21T05:17:10.284Z,6.40
2023-05-21T05:19:43.973Z,6.77
2023-05-21T05:22:17.714Z,6.53
2023-05-21T05:24:52.100Z,6.00
2023-05-21T05:27:26.376Z,5.47
2023-05-21T05:30:01.195Z,6.00
2023-05-21T05:32:36.228Z,5.37
2023-05-21T05:35:13.031Z,5.50
2023-05-21T05:37:47.261Z,5.33
2023-05-21T05:40:21.673Z,5.30
2023-05-21T05:42:55.285Z,5.53
2023-05-21T05:45:29.254Z,5.57
2023-05-21T05:48:03.358Z,5.80
2023-05-21T05:50:38.086Z,5.20
2023-05-21T05:53:13.418Z,4.97
2023-05-21T05:55:47.373Z,5.53
2023-05-21T05:58:21.611Z,4.97
2023-05-21T06:01:03.194Z,4.85
2023-05-21T06:03:38.866Z,4.93
2023-05-21T06:06:18.452Z,5.70
2023-05-21T06:08:52.982Z,4.87
2023-05-21T06:11:26.597Z,5.00
2023-05-21T06:14:01.658Z,5.10
2023-05-21T06:16:37.416Z,4.87
2023-05-21T06:19:12.410Z,4.97
2023-05-21T06:21:47.745Z,4.77
2023-05-21T06:24:21.205Z,4.60
2023-05-21T06:26:55.918Z,5.43
2023-05-21T06:29:29.511Z,4.50
2023-05-21T06:32:03.612Z,5.17
2023-05-21T06:34:38.706Z,4.13
2023-05-21T06:37:12.827Z,4.83
2023-05-21T06:39:47.243Z,5.00
2023-05-21T06:42:21.256Z,4.47
2023-05-21T06:45:20.874Z,4.60
2023-05-21T06:47:57.725Z,4.53
2023-05-21T06:50:31.650Z,5.30
2023-05-21T06:53:05.469Z,4.77
2023-05-21T06:55:39.869Z,4.83
2023-05-21T06:58:31.435Z,4.70
2023-05-21T07:01:05.537Z,4.43
2023-05-21T07:03:41.155Z,4.63
2023-05-21T07:06:17.111Z,4.63
2023-05-21T07:08:50.843Z,4.37
2023-05-21T07:11:28.776Z,5.20
2023-05-21T07:14:04.109Z,4.50
2023-05-21T07:16:39.524Z,4.87
2023-05-21T07:19:13.881Z,4.80
2023-05-21T07:21:48.741Z,4.33
2023-05-21T07:24:22.743Z,4.43
2023-05-21T07:26:56.865Z,4.77
2023-05-21T07:29:30.914Z,4.20
2023-05-21T07:32:05.059Z,4.17
2023-05-21T07:34:39.135Z,4.07
2023-05-21T07:37:14.066Z,4.40
2023-05-21T07:39:47.912Z,4.40
2023-05-21T07:42:22.248Z,4.83
2023-05-21T07:44:56.261Z,4.33
2023-05-21T07:47:31.164Z,4.40
2023-05-21T07:50:05.513Z,4.50
2023-05-21T07:52:39.656Z,4.40
2023-05-21T07:55:14.213Z,4.40
2023-05-21T07:57:47.309Z,4.00
2023-05-21T08:00:26.751Z,3.93
2023-05-21T08:03:01.510Z,4.77
2023-05-21T08:05:36.756Z,4.37
2023-05-21T08:08:11.059Z,5.07
2023-05-21T08:10:45.365Z,4.53
2023-05-21T08:13:19.993Z,4.67
2023-05-21T08:15:54.773Z,4.30
2023-05-21T08:18:29.250Z,4.57
2023-05-21T08:21:04.764Z,4.15
2023-05-21T08:23:39.359Z,4.37
2023-05-21T08:26:13.318Z,4.20
2023-05-21T08:28:47.021Z,4.33
2023-05-21T08:31:21.584Z,4.10
2023-05-21T08:33:58.012Z,4.80
2023-05-21T08:36:43.570Z,4.70
2023-05-21T08:39:32.451Z,4.17
2023-05-21T08:42:22.653Z,4.57
2023-05-21T08:45:09.044Z,4.70
2023-05-21T08:47:44.991Z,4.60
2023-05-21T08:50:20.525Z,4.23
2023-05-21T08:52:56.496Z,4.13
2023-05-21T08:55:32.692Z,4.33
2023-05-21T08:58:07.868Z,3.87
2023-05-21T09:00:41.593Z,4.10
2023-05-21T09:03:16.896Z,4.13
2023-05-21T09:05:51.956Z,4.43
2023-05-21T09:08:32.844Z,4.23
2023-05-21T09:11:15.696Z,3.97
2023-05-21T09:13:56.753Z,4.08
2023-05-21T09:16:36.382Z,3.97
2023-05-21T09:19:10.407Z,4.50
2023-05-21T09:21:44.681Z,4.60
2023-05-21T09:24:22.803Z,4.23
2023-05-21T09:26:56.658Z,4.10
2023-05-21T09:29:31.570Z,4.03
2023-05-21T09:32:10.436Z,4.13
2023-05-21T09:34:46.532Z,4.10
2023-05-21T09:37:27.563Z,4.30
2023-05-21T09:42:36.308Z,3.70
2023-05-21T09:45:13.262Z,4.13
2023-05-21T09:47:48.309Z,3.90
2023-05-21T09:50:23.860Z,3.90
2023-05-21T09:52:58.652Z,3.77
2023-05-21T09:55:32.744Z,3.90
2023-05-21T09:58:06.138Z,4.27
2023-05-21T10:00:40.984Z,4.40
2023-05-21T10:03:17.195Z,4.33
2023-05-21T10:05:53.670Z,3.60
2023-05-21T10:08:33.022Z,4.07
2023-05-21T10:11:08.382Z,4.90
2023-05-21T10:13:45.551Z,3.90
2023-05-21T10:16:19.819Z,4.70
2023-05-21T10:18:55.595Z,3.83
2023-05-21T10:21:29.725Z,85.23
2023-05-21T10:24:06.671Z,169.67
2023-05-21T10:26:42.748Z,36.73
2023-05-21T10:29:19.900Z,16.33
2023-05-21T10:31:55.217Z,18.27
2023-05-21T10:34:29.689Z,18.23
2023-05-21T10:37:06.078Z,28.50
2023-05-21T10:39:41.967Z,45.43
2023-05-21T10:42:23.881Z,141.57
2023-05-21T10:45:09.974Z,265.17
2023-05-21T10:48:07.384Z,422.63
2023-05-21T10:51:10.855Z,312.60
2023-05-21T10:53:58.514Z,163.47
2023-05-21T10:56:40.586Z,26.17
2023-05-21T10:59:33.154Z,24.10
2023-05-21T11:02:07.975Z,12.87
2023-05-21T11:04:44.451Z,18.97
2023-05-21T11:07:24.666Z,117.20
2023-05-21T11:10:37.703Z,56.08
2023-05-21T11:13:15.088Z,12.70
2023-05-21T11:16:15.652Z,5.87
2023-05-21T11:19:07.708Z,4.60
2023-05-21T11:21:43.480Z,3.97
2023-05-21T11:24:22.154Z,41.00
2023-05-21T11:27:07.094Z,64.37
2023-05-21T11:29:45.701Z,999.90
2023-05-21T11:32:20.915Z,999.90
2023-05-21T11:34:55.291Z,684.00
2023-05-21T11:37:36.052Z,291.50
2023-05-21T11:40:26.347Z,146.72
2023-05-21T11:43:00.462Z,93.05
2023-05-21T11:45:36.081Z,40.17
2023-05-21T11:48:17.798Z,23.97
2023-05-21T11:50:52.319Z,19.30
2023-05-21T11:53:26.230Z,104.73
2023-05-21T11:56:00.317Z,209.57
2023-05-21T11:58:34.350Z,74.93
2023-05-21T12:01:08.768Z,21.37
2023-05-21T12:03:42.699Z,7.87
2023-05-21T12:06:17.688Z,5.97
2023-05-21T12:08:58.668Z,4.67
2023-05-21T12:11:32.594Z,4.90
2023-05-21T12:14:08.291Z,4.03
2023-05-21T12:16:42.972Z,4.33
2023-05-21T12:19:20.458Z,4.27
2023-05-21T12:21:54.465Z,4.00
2023-05-21T12:24:28.225Z,5.80
2023-05-21T12:27:02.874Z,4.67
2023-05-21T12:29:37.780Z,4.80
2023-05-21T12:32:14.856Z,4.03
2023-05-21T12:34:51.013Z,4.30
2023-05-21T12:37:26.795Z,6.77
2023-05-21T12:40:03.308Z,5.83
2023-05-21T12:42:40.304Z,4.77
2023-05-21T12:45:18.906Z,4.10
2023-05-21T12:47:56.594Z,4.40
2023-05-21T12:50:31.039Z,4.30
2023-05-21T12:53:05.522Z,4.00
2023-05-21T12:55:40.940Z,4.57
2023-05-21T12:58:17.388Z,3.70
2023-05-21T13:00:51.347Z,4.37
2023-05-21T13:03:27.725Z,5.00
2023-05-21T13:06:04.009Z,5.47
2023-05-21T13:08:37.412Z,4.40
2023-05-21T13:11:11.077Z,5.10
2023-05-21T13:13:44.123Z,5.47
2023-05-21T13:16:18.510Z,3.93
2023-05-21T13:18:52.286Z,4.33
2023-05-21T13:21:26.300Z,3.57
2023-05-21T13:24:00.343Z,3.20
2023-05-21T13:26:34.257Z,4.73
2023-05-21T13:29:08.151Z,4.23
2023-05-21T13:31:42.035Z,3.63
2023-05-21T13:34:15.823Z,3.53
2023-05-21T13:36:49.647Z,3.10
2023-05-21T13:39:26.931Z,3.57
2023-05-21T13:42:01.918Z,3.43
2023-05-21T13:44:36.909Z,3.50
2023-05-21T13:47:12.246Z,4.00
2023-05-21T13:49:46.341Z,4.00
2023-05-21T13:52:20.261Z,3.47
2023-05-21T13:54:54.025Z,3.70
2023-05-21T13:57:30.977Z,4.27
2023-05-21T14:00:05.044Z,4.60
2023-05-21T14:02:41.179Z,4.67
2023-05-21T14:05:16.063Z,5.43
2023-05-21T14:07:51.634Z,4.67
2023-05-21T14:10:25.965Z,4.77
2023-05-21T14:13:07.505Z,4.57
2023-05-21T14:15:50.094Z,4.17
2023-05-21T14:18:24.210Z,4.17
2023-05-21T14:20:58.334Z,6.03
2023-05-21T14:23:32.128Z,5.00
2023-05-21T14:26:06.709Z,5.10
2023-05-21T14:28:40.858Z,5.77
2023-05-21T14:31:15.087Z,5.40
2023-05-21T14:33:48.869Z,4.80
2023-05-21T14:36:23.089Z,5.10
2023-05-21T14:38:56.992Z,5.23
2023-05-21T14:41:31.459Z,5.80
2023-05-21T14:44:04.763Z,5.10
2023-05-21T14:46:38.636Z,4.93
2023-05-21T14:49:12.545Z,5.00
2023-05-21T14:51:47.826Z,5.00
2023-05-21T14:54:21.764Z,4.90
2023-05-21T14:56:55.927Z,4.97
2023-05-21T14:59:29.784Z,4.67
2023-05-21T15:02:04.073Z,4.60
2023-05-21T15:04:37.742Z,4.63
2023-05-21T15:07:11.892Z,4.60
2023-05-21T15:09:45.741Z,4.30
2023-05-21T15:12:19.832Z,4.23
2023-05-21T15:14:54.176Z,4.70
2023-05-21T15:17:27.726Z,4.55
2023-05-21T15:20:04.561Z,4.27
2023-05-21T15:22:38.821Z,4.33
2023-05-21T15:25:14.010Z,4.30
2023-05-21T15:27:50.401Z,4.47
2023-05-21T15:30:25.705Z,4.20
2023-05-21T15:32:59.870Z,3.77
2023-05-21T15:35:34.463Z,4.10
2023-05-21T15:38:08.128Z,5.00
2023-05-21T15:40:42.923Z,4.60
2023-05-21T15:43:16.901Z,4.83
2023-05-21T15:45:50.723Z,5.80
2023-05-21T15:48:24.229Z,4.77
2023-05-21T15:50:58.169Z,4.70
2023-05-21T15:53:32.183Z,4.40
2023-05-21T15:56:06.715Z,4.30
2023-05-21T15:58:41.439Z,5.60
2023-05-21T16:01:15.196Z,5.07
2023-05-21T16:03:49.213Z,6.00
2023-05-21T16:06:23.405Z,4.80
2023-05-21T16:08:57.473Z,5.80
2023-05-21T16:11:31.367Z,6.27
2023-05-21T16:14:05.171Z,5.90
2023-05-21T16:16:40.667Z,4.97
2023-05-21T16:19:14.921Z,7.60
2023-05-21T16:21:49.037Z,6.87
2023-05-21T16:24:22.594Z,5.97
2023-05-21T16:26:56.984Z,6.70
2023-05-21T16:29:31.182Z,6.97
2023-05-21T16:32:05.406Z,5.30
2023-05-21T16:34:38.801Z,6.30
2023-05-21T16:37:12.768Z,6.90
2023-05-21T16:39:46.650Z,6.37
2023-05-21T16:42:20.925Z,5.30
2023-05-21T16:44:54.617Z,4.60
2023-05-21T16:47:29.079Z,4.47
2023-05-21T16:50:02.906Z,4.73
2023-05-21T16:52:36.980Z,5.33
2023-05-21T16:55:12.469Z,4.50
2023-05-21T16:57:46.518Z,4.70
2023-05-21T17:00:22.736Z,4.63
2023-05-21T17:02:56.770Z,4.97
2023-05-21T17:05:31.082Z,4.33
2023-05-21T17:08:05.909Z,4.53
2023-05-21T17:10:40.248Z,4.40
2023-05-21T17:13:21.568Z,4.30
2023-05-21T17:15:57.101Z,5.33
2023-05-21T17:18:31.428Z,4.63
2023-05-21T17:21:05.801Z,5.03
2023-05-21T17:23:39.576Z,4.63
2023-05-21T17:26:14.285Z,5.57
2023-05-21T17:28:48.158Z,5.40
2023-05-21T17:31:22.209Z,4.83
2023-05-21T17:33:56.581Z,4.57
2023-05-21T17:36:32.353Z,4.57
2023-05-21T17:39:06.233Z,4.70
2023-05-21T17:41:40.977Z,3.87
2023-05-21T17:44:16.881Z,3.97
2023-05-21T17:46:52.840Z,3.50
2023-05-21T17:49:26.571Z,4.17
2023-05-21T17:52:03.292Z,3.30
2023-05-21T17:54:37.580Z,3.40
2023-05-21T17:57:11.384Z,3.73
2023-05-21T17:59:46.507Z,3.60
2023-05-21T18:02:20.506Z,3.80
2023-05-21T18:04:54.125Z,3.40
2023-05-21T18:07:27.969Z,3.37
2023-05-21T18:10:01.918Z,3.23
2023-05-21T18:12:37.374Z,3.80
2023-05-21T18:15:14.926Z,4.13
2023-05-21T18:17:49.179Z,3.83
2023-05-21T18:20:23.375Z,4.10
2023-05-21T18:22:57.287Z,4.10
2023-05-21T18:25:31.090Z,4.37
2023-05-21T18:28:04.324Z,4.03
2023-05-21T18:30:38.199Z,3.80
2023-05-21T18:33:12.782Z,3.80
2023-05-21T18:35:46.929Z,3.90
2023-05-21T18:38:21.345Z,4.20
2023-05-21T18:40:55.491Z,4.00
2023-05-21T18:43:28.574Z,4.00
2023-05-21T18:46:03.296Z,3.90
2023-05-21T18:48:37.287Z,4.10
2023-05-21T18:51:11.522Z,4.43
2023-05-21T18:53:46.104Z,4.20
2023-05-21T18:56:20.670Z,4.80
2023-05-21T18:58:54.041Z,5.17
2023-05-21T19:01:28.314Z,4.63
2023-05-21T19:04:02.607Z,5.83
2023-05-21T19:06:36.921Z,5.20
2023-05-21T19:09:10.614Z,5.70
2023-05-21T19:11:44.781Z,5.43
2023-05-21T19:14:20.621Z,5.63
2023-05-21T19:16:54.634Z,4.83
2023-05-21T19:19:28.858Z,5.33
2023-05-21T19:22:03.320Z,5.13
2023-05-21T19:24:38.696Z,4.53
2023-05-21T19:27:12.039Z,5.10
2023-05-21T19:29:47.477Z,5.17
2023-05-21T19:32:24.041Z,4.67
2023-05-21T19:34:57.622Z,4.80
2023-05-21T19:37:31.612Z,5.27
2023-05-21T19:40:06.302Z,4.00
2023-05-21T19:42:42.098Z,4.50
2023-05-21T19:45:17.957Z,4.80
2023-05-21T19:47:52.130Z,4.50
2023-05-21T19:50:28.930Z,4.80
2023-05-21T19:53:03.095Z,4.10
2023-05-21T19:55:37.867Z,4.20
2023-05-21T19:58:13.739Z,4.77
2023-05-21T20:00:48.627Z,4.63
2023-05-21T20:03:22.734Z,4.90
2023-05-21T20:05:57.444Z,5.60
2023-05-21T20:08:31.468Z,5.10
2023-05-21T20:11:05.359Z,5.23
2023-05-21T20:13:38.408Z,5.10
2023-05-21T20:16:13.511Z,5.00
2023-05-21T20:18:47.775Z,5.47
2023-05-21T20:21:21.793Z,5.23
2023-05-21T20:23:56.865Z,4.80
2023-05-21T20:26:35.085Z,5.77
2023-05-21T20:29:09.572Z,5.33
2023-05-21T20:31:43.368Z,4.87
2023-05-21T20:34:17.777Z,4.93
2023-05-21T20:36:52.482Z,5.53
2023-05-21T20:39:29.725Z,4.83
2023-05-21T20:42:06.655Z,5.60
2023-05-21T20:44:40.429Z,5.90
2023-05-21T20:47:14.022Z,5.07
2023-05-21T20:49:48.316Z,5.07
2023-05-21T20:52:24.106Z,5.47
2023-05-21T20:55:01.332Z,5.00
2023-05-21T20:57:34.656Z,4.73
2023-05-21T21:00:12.827Z,5.00
2023-05-21T21:02:47.388Z,5.83
2023-05-21T21:05:21.454Z,5.07
2023-05-21T21:07:56.053Z,5.10
2023-05-21T21:10:31.195Z,5.20
2023-05-21T21:13:07.292Z,4.90
2023-05-21T21:15:40.963Z,5.10
2023-05-21T21:18:15.111Z,4.37
2023-05-21T21:20:50.117Z,4.27
2023-05-21T21:23:26.829Z,5.13
2023-05-21T21:26:00.552Z,5.00
2023-05-21T21:28:33.342Z,4.90
2023-05-21T21:31:06.916Z,5.20
2023-05-21T21:33:40.683Z,4.60
2023-05-21T21:36:15.222Z,4.20
2023-05-21T21:38:48.810Z,5.07
2023-05-21T21:41:22.672Z,4.80
2023-05-21T21:43:56.328Z,5.13
2023-05-21T21:46:30.663Z,4.63
2023-05-21T21:49:04.663Z,4.80
2023-05-21T21:51:39.634Z,4.93
2023-05-21T21:54:14.002Z,4.33
2023-05-21T21:56:47.801Z,5.00
2023-05-21T21:59:22.495Z,4.63
2023-05-21T22:01:56.224Z,4.80
2023-05-21T22:04:30.787Z,4.93
2023-05-21T22:07:04.298Z,4.73
2023-05-21T22:09:37.642Z,4.80
2023-05-21T22:12:13.693Z,4.90
2023-05-21T22:14:47.709Z,4.47
2023-05-21T22:17:21.798Z,4.83
2023-05-21T22:19:56.336Z,4.37
2023-05-21T22:22:29.744Z,4.70
2023-05-21T22:25:03.456Z,4.10
2023-05-21T22:27:37.344Z,4.40
2023-05-21T22:30:14.777Z,4.23
2023-05-21T22:32:49.104Z,4.57
2023-05-21T22:35:23.077Z,4.43
2023-05-21T22:37:57.269Z,4.00
2023-05-21T22:40:31.214Z,4.47
2023-05-21T22:43:04.488Z,4.20
2023-05-21T22:45:38.589Z,4.77
2023-05-21T22:48:12.763Z,4.10
2023-05-21T22:50:47.585Z,4.27
2023-05-21T22:53:21.718Z,4.40
2023-05-21T22:55:55.338Z,4.17
2023-05-21T22:58:29.154Z,4.50
2023-05-21T23:01:02.934Z,4.40
2023-05-21T23:03:37.086Z,4.00
2023-05-21T23:06:10.971Z,4.07
2023-05-21T23:08:44.566Z,4.73
2023-05-21T23:11:18.711Z,4.10
2023-05-21T23:13:51.438Z,4.30
2023-05-21T23:16:25.797Z,4.10
2023-05-21T23:18:59.718Z,4.50
2023-05-21T23:21:33.996Z,4.47
2023-05-21T23:24:08.353Z,4.50
2023-05-21T23:26:42.261Z,4.60
2023-05-21T23:29:15.620Z,4.40
2023-05-21T23:31:50.076Z,4.33
2023-05-21T23:34:25.004Z,4.87
2023-05-21T23:37:00.480Z,4.37
2023-05-21T23:39:34.167Z,4.60
2023-05-21T23:42:09.568Z,4.57
2023-05-21T23:44:42.952Z,4.30
2023-05-21T23:47:17.383Z,4.77
2023-05-21T23:49:51.106Z,4.97
2023-05-21T23:52:25.483Z,5.00
2023-05-21T23:54:59.337Z,5.43
2023-05-21T23:57:33.213Z,4.93
